sensor_id;sensor_type;location;lat;lon;timestamp;temperature;humidity
14555;DHT22;7364;50.870;4.722;2023-11-19T00:02:25;13.90;99.90
14555;DHT22;7364;50.870;4.722;2023-11-19T00:04:54;13.90;99.90
14555;DHT22;7364;50.870;4.722;2023-11-19T00:07:21;13.80;99.90
14555;DHT22;7364;50.870;4.722;2023-11-19T00:09:48;13.80;99.90
14555;DHT22;7364;50.870;4.722;2023-11-19T00:12:16;13.70;99.90
14555;DHT22;7364;50.870;4.722;2023-11-19T00:14:45;13.60;99.90
14555;DHT22;7364;50.870;4.722;2023-11-19T00:17:14;13.60;99.90
14555;DHT22;7364;50.870;4.722;2023-11-19T00:19:41;13.50;99.90
14555;DHT22;7364;50.870;4.722;2023-11-19T00:22:08;13.50;99.90
14555;DHT22;7364;50.870;4.722;2023-11-19T00:24:36;13.60;99.90
14555;DHT22;7364;50.870;4.722;2023-11-19T00:27:03;13.70;99.90
14555;DHT22;7364;50.870;4.722;2023-11-19T00:29:33;13.60;99.90
14555;DHT22;7364;50.870;4.722;2023-11-19T00:32:02;13.60;99.90
14555;DHT22;7364;50.870;4.722;2023-11-19T00:34:32;13.70;99.90
14555;DHT22;7364;50.870;4.722;2023-11-19T00:36:59;13.70;99.90
14555;DHT22;7364;50.870;4.722;2023-11-19T00:39:26;13.70;99.90
14555;DHT22;7364;50.870;4.722;2023-11-19T00:41:53;13.80;99.90
14555;DHT22;7364;50.870;4.722;2023-11-19T00:44:21;13.90;99.90
14555;DHT22;7364;50.870;4.722;2023-11-19T00:46:48;14.00;99.90
14555;DHT22;7364;50.870;4.722;2023-11-19T00:49:16;14.00;99.90
14555;DHT22;7364;50.870;4.722;2023-11-19T00:51:44;14.00;99.90
14555;DHT22;7364;50.870;4.722;2023-11-19T00:54:11;14.10;99.90
14555;DHT22;7364;50.870;4.722;2023-11-19T00:56:39;14.00;99.90
14555;DHT22;7364;50.870;4.722;2023-11-19T00:59:06;14.20;99.90
14555;DHT22;7364;50.870;4.722;2023-11-19T01:01:33;14.20;99.90
14555;DHT22;7364;50.870;4.722;2023-11-19T01:04:00;13.90;99.90
14555;DHT22;7364;50.870;4.722;2023-11-19T01:06:29;13.90;99.90
14555;DHT22;7364;50.870;4.722;2023-11-19T01:08:58;13.80;99.90
14555;DHT22;7364;50.870;4.722;2023-11-19T01:11:26;13.70;99.90
14555;DHT22;7364;50.870;4.722;2023-11-19T01:13:57;13.80;99.90
14555;DHT22;7364;50.870;4.722;2023-11-19T01:16:24;13.80;99.90
14555;DHT22;7364;50.870;4.722;2023-11-19T01:18:53;13.80;99.90
14555;DHT22;7364;50.870;4.722;2023-11-19T01:21:20;13.80;99.90
14555;DHT22;7364;50.870;4.722;2023-11-19T01:23:47;13.70;99.90
14555;DHT22;7364;50.870;4.722;2023-11-19T01:26:16;13.60;99.90
14555;DHT22;7364;50.870;4.722;2023-11-19T01:28:43;13.60;99.90
14555;DHT22;7364;50.870;4.722;2023-11-19T01:31:15;13.60;99.90
14555;DHT22;7364;50.870;4.722;2023-11-19T01:33:42;13.50;99.90
14555;DHT22;7364;50.870;4.722;2023-11-19T01:36:13;13.60;99.90
14555;DHT22;7364;50.870;4.722;2023-11-19T01:38:40;13.60;99.90
14555;DHT22;7364;50.870;4.722;2023-11-19T01:41:07;13.50;99.90
14555;DHT22;7364;50.870;4.722;2023-11-19T01:43:37;13.60;99.90
14555;DHT22;7364;50.870;4.722;2023-11-19T01:46:07;13.60;99.90
14555;DHT22;7364;50.870;4.722;2023-11-19T01:48:37;13.60;99.90
14555;DHT22;7364;50.870;4.722;2023-11-19T01:51:07;13.60;99.90
14555;DHT22;7364;50.870;4.722;2023-11-19T01:53:39;13.60;99.90
14555;DHT22;7364;50.870;4.722;2023-11-19T01:56:08;13.50;99.90
14555;DHT22;7364;50.870;4.722;2023-11-19T01:58:38;13.60;99.90
14555;DHT22;7364;50.870;4.722;2023-11-19T02:01:06;13.60;99.90
14555;DHT22;7364;50.870;4.722;2023-11-19T02:03:33;13.60;99.90
14555;DHT22;7364;50.870;4.722;2023-11-19T02:06:01;13.50;99.90
14555;DHT22;7364;50.870;4.722;2023-11-19T02:08:29;13.50;99.90
14555;DHT22;7364;50.870;4.722;2023-11-19T02:10:57;13.40;99.90
14555;DHT22;7364;50.870;4.722;2023-11-19T02:13:26;13.30;99.90
14555;DHT22;7364;50.870;4.722;2023-11-19T02:15:55;13.30;99.90
14555;DHT22;7364;50.870;4.722;2023-11-19T02:18:24;13.20;99.90
14555;DHT22;7364;50.870;4.722;2023-11-19T02:20:53;13.20;99.90
14555;DHT22;7364;50.870;4.722;2023-11-19T02:23:21;13.10;99.90
14555;DHT22;7364;50.870;4.722;2023-11-19T02:26:02;13.10;99.90
14555;DHT22;7364;50.870;4.722;2023-11-19T02:28:32;13.20;99.90
14555;DHT22;7364;50.870;4.722;2023-11-19T02:31:00;13.10;99.90
14555;DHT22;7364;50.870;4.722;2023-11-19T02:33:27;13.10;99.90
14555;DHT22;7364;50.870;4.722;2023-11-19T02:35:56;13.00;99.90
14555;DHT22;7364;50.870;4.722;2023-11-19T02:38:23;12.90;99.90
14555;DHT22;7364;50.870;4.722;2023-11-19T02:40:51;12.90;99.90
14555;DHT22;7364;50.870;4.722;2023-11-19T02:43:19;12.90;99.90
14555;DHT22;7364;50.870;4.722;2023-11-19T02:45:47;12.80;99.90
14555;DHT22;7364;50.870;4.722;2023-11-19T02:48:15;12.90;99.90
14555;DHT22;7364;50.870;4.722;2023-11-19T02:50:42;13.00;99.90
14555;DHT22;7364;50.870;4.722;2023-11-19T02:53:09;12.90;99.90
14555;DHT22;7364;50.870;4.722;2023-11-19T02:55:38;12.90;99.90
14555;DHT22;7364;50.870;4.722;2023-11-19T02:58:07;12.90;99.90
14555;DHT22;7364;50.870;4.722;2023-11-19T03:00:46;12.90;99.90
14555;DHT22;7364;50.870;4.722;2023-11-19T03:03:19;12.90;99.90
14555;DHT22;7364;50.870;4.722;2023-11-19T03:05:48;13.00;99.90
14555;DHT22;7364;50.870;4.722;2023-11-19T03:08:16;13.00;99.90
14555;DHT22;7364;50.870;4.722;2023-11-19T03:10:43;13.00;99.90
14555;DHT22;7364;50.870;4.722;2023-11-19T03:13:12;13.00;99.90
14555;DHT22;7364;50.870;4.722;2023-11-19T03:15:40;13.00;99.90
14555;DHT22;7364;50.870;4.722;2023-11-19T03:18:09;13.00;99.90
14555;DHT22;7364;50.870;4.722;2023-11-19T03:20:38;13.00;99.90
14555;DHT22;7364;50.870;4.722;2023-11-19T03:23:05;13.00;99.90
14555;DHT22;7364;50.870;4.722;2023-11-19T03:25:32;13.00;99.90
14555;DHT22;7364;50.870;4.722;2023-11-19T03:28:00;12.90;99.90
14555;DHT22;7364;50.870;4.722;2023-11-19T03:30:28;12.90;99.90
14555;DHT22;7364;50.870;4.722;2023-11-19T03:32:56;12.90;99.90
14555;DHT22;7364;50.870;4.722;2023-11-19T03:35:25;13.00;99.90
14555;DHT22;7364;50.870;4.722;2023-11-19T03:37:53;13.00;99.90
14555;DHT22;7364;50.870;4.722;2023-11-19T03:40:21;12.90;99.90
14555;DHT22;7364;50.870;4.722;2023-11-19T03:42:49;12.80;99.90
14555;DHT22;7364;50.870;4.722;2023-11-19T03:45:17;12.70;99.90
14555;DHT22;7364;50.870;4.722;2023-11-19T03:47:44;12.60;99.90
14555;DHT22;7364;50.870;4.722;2023-11-19T03:50:14;12.70;99.90
14555;DHT22;7364;50.870;4.722;2023-11-19T03:52:43;12.60;99.90
14555;DHT22;7364;50.870;4.722;2023-11-19T03:55:10;12.60;99.90
14555;DHT22;7364;50.870;4.722;2023-11-19T03:57:38;12.70;99.90
14555;DHT22;7364;50.870;4.722;2023-11-19T04:00:06;12.80;99.90
14555;DHT22;7364;50.870;4.722;2023-11-19T04:02:36;12.70;99.90
14555;DHT22;7364;50.870;4.722;2023-11-19T04:05:03;12.70;99.90
14555;DHT22;7364;50.870;4.722;2023-11-19T04:07:31;12.60;99.90
14555;DHT22;7364;50.870;4.722;2023-11-19T04:10:00;12.60;99.90
14555;DHT22;7364;50.870;4.722;2023-11-19T04:12:27;12.60;99.90
14555;DHT22;7364;50.870;4.722;2023-11-19T04:14:54;12.50;99.90
14555;DHT22;7364;50.870;4.722;2023-11-19T04:17:22;12.50;99.90
14555;DHT22;7364;50.870;4.722;2023-11-19T04:19:50;12.50;99.90
14555;DHT22;7364;50.870;4.722;2023-11-19T04:22:17;12.40;99.90
14555;DHT22;7364;50.870;4.722;2023-11-19T04:24:45;12.30;99.90
14555;DHT22;7364;50.870;4.722;2023-11-19T04:27:14;12.40;99.90
14555;DHT22;7364;50.870;4.722;2023-11-19T04:29:41;12.60;99.90
14555;DHT22;7364;50.870;4.722;2023-11-19T04:32:08;12.60;99.90
14555;DHT22;7364;50.870;4.722;2023-11-19T04:34:36;12.80;99.90
14555;DHT22;7364;50.870;4.722;2023-11-19T04:37:03;12.60;99.90
14555;DHT22;7364;50.870;4.722;2023-11-19T04:39:31;12.70;99.90
14555;DHT22;7364;50.870;4.722;2023-11-19T04:41:58;12.60;99.90
14555;DHT22;7364;50.870;4.722;2023-11-19T04:44:26;12.50;99.90
14555;DHT22;7364;50.870;4.722;2023-11-19T04:46:55;12.40;99.90
14555;DHT22;7364;50.870;4.722;2023-11-19T04:49:23;12.40;99.90
14555;DHT22;7364;50.870;4.722;2023-11-19T04:51:53;12.30;99.90
14555;DHT22;7364;50.870;4.722;2023-11-19T04:54:20;12.30;99.90
14555;DHT22;7364;50.870;4.722;2023-11-19T04:56:47;12.30;99.90
14555;DHT22;7364;50.870;4.722;2023-11-19T04:59:15;12.30;99.90
14555;DHT22;7364;50.870;4.722;2023-11-19T05:01:46;12.30;99.90
14555;DHT22;7364;50.870;4.722;2023-11-19T05:04:14;12.30;99.90
14555;DHT22;7364;50.870;4.722;2023-11-19T05:06:41;12.30;99.90
14555;DHT22;7364;50.870;4.722;2023-11-19T05:09:09;12.30;99.90
14555;DHT22;7364;50.870;4.722;2023-11-19T05:11:38;12.30;99.90
14555;DHT22;7364;50.870;4.722;2023-11-19T05:14:06;12.30;99.90
14555;DHT22;7364;50.870;4.722;2023-11-19T05:16:34;12.30;99.90
14555;DHT22;7364;50.870;4.722;2023-11-19T05:19:03;12.40;99.90
14555;DHT22;7364;50.870;4.722;2023-11-19T05:21:31;12.30;99.90
14555;DHT22;7364;50.870;4.722;2023-11-19T05:23:58;12.30;99.90
14555;DHT22;7364;50.870;4.722;2023-11-19T05:26:25;12.30;99.90
14555;DHT22;7364;50.870;4.722;2023-11-19T05:28:52;12.30;99.90
14555;DHT22;7364;50.870;4.722;2023-11-19T05:31:20;12.30;99.90
14555;DHT22;7364;50.870;4.722;2023-11-19T05:33:47;12.30;99.90
14555;DHT22;7364;50.870;4.722;2023-11-19T05:36:16;12.30;99.90
14555;DHT22;7364;50.870;4.722;2023-11-19T05:38:43;12.30;99.90
14555;DHT22;7364;50.870;4.722;2023-11-19T05:41:11;12.20;99.90
14555;DHT22;7364;50.870;4.722;2023-11-19T05:43:38;12.20;99.90
14555;DHT22;7364;50.870;4.722;2023-11-19T05:46:07;12.10;99.90
14555;DHT22;7364;50.870;4.722;2023-11-19T05:48:34;12.10;99.90
14555;DHT22;7364;50.870;4.722;2023-11-19T05:51:02;12.20;99.90
14555;DHT22;7364;50.870;4.722;2023-11-19T05:53:30;12.00;99.90
14555;DHT22;7364;50.870;4.722;2023-11-19T05:55:58;12.00;99.90
14555;DHT22;7364;50.870;4.722;2023-11-19T05:58:30;12.00;99.90
14555;DHT22;7364;50.870;4.722;2023-11-19T06:01:01;12.00;99.90
14555;DHT22;7364;50.870;4.722;2023-11-19T06:03:29;12.00;99.90
14555;DHT22;7364;50.870;4.722;2023-11-19T06:05:56;12.00;99.90
14555;DHT22;7364;50.870;4.722;2023-11-19T06:08:23;12.00;99.90
14555;DHT22;7364;50.870;4.722;2023-11-19T06:10:54;12.10;99.90
14555;DHT22;7364;50.870;4.722;2023-11-19T06:13:22;12.10;99.90
14555;DHT22;7364;50.870;4.722;2023-11-19T06:15:49;12.00;99.90
14555;DHT22;7364;50.870;4.722;2023-11-19T06:18:17;12.00;99.90
14555;DHT22;7364;50.870;4.722;2023-11-19T06:20:45;12.10;99.90
14555;DHT22;7364;50.870;4.722;2023-11-19T06:23:13;12.10;99.90
14555;DHT22;7364;50.870;4.722;2023-11-19T06:25:40;12.10;99.90
14555;DHT22;7364;50.870;4.722;2023-11-19T06:28:09;12.10;99.90
14555;DHT22;7364;50.870;4.722;2023-11-19T06:30:36;12.00;99.90
14555;DHT22;7364;50.870;4.722;2023-11-19T06:33:03;12.10;99.90
14555;DHT22;7364;50.870;4.722;2023-11-19T06:35:30;12.10;99.90
14555;DHT22;7364;50.870;4.722;2023-11-19T06:38:02;12.10;99.90
14555;DHT22;7364;50.870;4.722;2023-11-19T06:40:30;12.10;99.90
14555;DHT22;7364;50.870;4.722;2023-11-19T06:42:57;12.20;99.90
14555;DHT22;7364;50.870;4.722;2023-11-19T06:45:26;12.30;99.90
14555;DHT22;7364;50.870;4.722;2023-11-19T06:47:53;12.10;99.90
14555;DHT22;7364;50.870;4.722;2023-11-19T06:50:20;12.00;99.90
14555;DHT22;7364;50.870;4.722;2023-11-19T06:52:48;12.00;99.90
14555;DHT22;7364;50.870;4.722;2023-11-19T06:55:16;11.90;99.90
14555;DHT22;7364;50.870;4.722;2023-11-19T06:57:43;11.90;99.90
14555;DHT22;7364;50.870;4.722;2023-11-19T07:00:11;12.00;99.90
14555;DHT22;7364;50.870;4.722;2023-11-19T07:02:40;11.90;99.90
14555;DHT22;7364;50.870;4.722;2023-11-19T07:05:08;11.80;99.90
14555;DHT22;7364;50.870;4.722;2023-11-19T07:07:35;11.70;99.90
14555;DHT22;7364;50.870;4.722;2023-11-19T07:10:02;11.70;99.90
14555;DHT22;7364;50.870;4.722;2023-11-19T07:12:31;11.80;99.90
14555;DHT22;7364;50.870;4.722;2023-11-19T07:14:59;11.70;99.90
14555;DHT22;7364;50.870;4.722;2023-11-19T07:17:27;11.90;99.90
14555;DHT22;7364;50.870;4.722;2023-11-19T07:19:56;11.90;99.90
14555;DHT22;7364;50.870;4.722;2023-11-19T07:22:25;12.00;99.90
14555;DHT22;7364;50.870;4.722;2023-11-19T07:24:52;12.10;99.90
14555;DHT22;7364;50.870;4.722;2023-11-19T07:27:20;12.10;99.90
14555;DHT22;7364;50.870;4.722;2023-11-19T07:29:47;12.20;99.90
14555;DHT22;7364;50.870;4.722;2023-11-19T07:32:14;12.20;99.90
14555;DHT22;7364;50.870;4.722;2023-11-19T07:34:42;12.00;99.90
14555;DHT22;7364;50.870;4.722;2023-11-19T07:37:11;12.00;99.90
14555;DHT22;7364;50.870;4.722;2023-11-19T07:39:38;12.10;99.90
14555;DHT22;7364;50.870;4.722;2023-11-19T07:42:06;12.20;99.90
14555;DHT22;7364;50.870;4.722;2023-11-19T07:44:35;12.20;99.90
14555;DHT22;7364;50.870;4.722;2023-11-19T07:47:02;12.10;99.90
14555;DHT22;7364;50.870;4.722;2023-11-19T07:49:30;12.10;99.90
14555;DHT22;7364;50.870;4.722;2023-11-19T07:51:57;12.10;99.90
14555;DHT22;7364;50.870;4.722;2023-11-19T07:54:26;12.00;99.90
14555;DHT22;7364;50.870;4.722;2023-11-19T07:56:53;12.10;99.90
14555;DHT22;7364;50.870;4.722;2023-11-19T07:59:21;12.10;99.90
14555;DHT22;7364;50.870;4.722;2023-11-19T08:01:48;12.30;99.90
14555;DHT22;7364;50.870;4.722;2023-11-19T08:04:15;12.30;99.90
14555;DHT22;7364;50.870;4.722;2023-11-19T08:06:42;12.20;99.90
14555;DHT22;7364;50.870;4.722;2023-11-19T08:09:11;12.20;99.90
14555;DHT22;7364;50.870;4.722;2023-11-19T08:11:41;12.40;99.90
14555;DHT22;7364;50.870;4.722;2023-11-19T08:14:08;12.60;99.90
14555;DHT22;7364;50.870;4.722;2023-11-19T08:16:37;12.70;99.90
14555;DHT22;7364;50.870;4.722;2023-11-19T08:19:06;12.70;99.90
14555;DHT22;7364;50.870;4.722;2023-11-19T08:21:34;12.80;99.90
14555;DHT22;7364;50.870;4.722;2023-11-19T08:24:01;12.80;99.90
14555;DHT22;7364;50.870;4.722;2023-11-19T08:26:29;12.60;99.90
14555;DHT22;7364;50.870;4.722;2023-11-19T08:28:58;12.80;99.90
14555;DHT22;7364;50.870;4.722;2023-11-19T08:31:25;12.80;99.90
14555;DHT22;7364;50.870;4.722;2023-11-19T08:33:53;12.80;99.90
14555;DHT22;7364;50.870;4.722;2023-11-19T08:36:20;12.60;99.90
14555;DHT22;7364;50.870;4.722;2023-11-19T08:38:47;12.60;99.90
14555;DHT22;7364;50.870;4.722;2023-11-19T08:41:15;12.70;99.90
14555;DHT22;7364;50.870;4.722;2023-11-19T08:43:43;12.80;99.90
14555;DHT22;7364;50.870;4.722;2023-11-19T08:46:12;12.90;99.90
14555;DHT22;7364;50.870;4.722;2023-11-19T08:48:39;13.00;99.90
14555;DHT22;7364;50.870;4.722;2023-11-19T08:51:06;13.10;99.90
14555;DHT22;7364;50.870;4.722;2023-11-19T08:53:34;13.10;99.90
14555;DHT22;7364;50.870;4.722;2023-11-19T08:56:01;13.20;99.90
14555;DHT22;7364;50.870;4.722;2023-11-19T08:58:29;13.10;99.90
14555;DHT22;7364;50.870;4.722;2023-11-19T09:00:56;13.10;99.90
14555;DHT22;7364;50.870;4.722;2023-11-19T09:03:25;13.10;99.90
14555;DHT22;7364;50.870;4.722;2023-11-19T09:05:52;12.90;99.90
14555;DHT22;7364;50.870;4.722;2023-11-19T09:08:20;12.80;99.90
14555;DHT22;7364;50.870;4.722;2023-11-19T09:10:47;12.60;99.90
14555;DHT22;7364;50.870;4.722;2023-11-19T09:13:14;12.50;99.90
14555;DHT22;7364;50.870;4.722;2023-11-19T09:15:41;12.50;99.90
14555;DHT22;7364;50.870;4.722;2023-11-19T09:18:09;12.50;99.90
14555;DHT22;7364;50.870;4.722;2023-11-19T09:20:38;12.70;99.90
14555;DHT22;7364;50.870;4.722;2023-11-19T09:23:05;12.80;99.90
14555;DHT22;7364;50.870;4.722;2023-11-19T09:25:32;13.00;99.90
14555;DHT22;7364;50.870;4.722;2023-11-19T09:27:59;13.20;99.90
14555;DHT22;7364;50.870;4.722;2023-11-19T09:30:27;13.20;99.90
14555;DHT22;7364;50.870;4.722;2023-11-19T09:32:54;13.30;99.90
14555;DHT22;7364;50.870;4.722;2023-11-19T09:35:21;13.10;99.90
14555;DHT22;7364;50.870;4.722;2023-11-19T09:37:50;13.00;99.90
14555;DHT22;7364;50.870;4.722;2023-11-19T09:40:17;13.20;99.90
14555;DHT22;7364;50.870;4.722;2023-11-19T09:42:47;13.20;99.90
14555;DHT22;7364;50.870;4.722;2023-11-19T09:45:15;13.30;99.90
14555;DHT22;7364;50.870;4.722;2023-11-19T09:47:45;13.50;99.90
14555;DHT22;7364;50.870;4.722;2023-11-19T09:50:16;13.50;99.90
14555;DHT22;7364;50.870;4.722;2023-11-19T09:52:49;13.40;99.90
14555;DHT22;7364;50.870;4.722;2023-11-19T09:55:16;13.50;99.90
14555;DHT22;7364;50.870;4.722;2023-11-19T09:57:44;13.50;99.90
14555;DHT22;7364;50.870;4.722;2023-11-19T10:00:14;13.70;99.90
14555;DHT22;7364;50.870;4.722;2023-11-19T10:02:43;14.00;99.90
14555;DHT22;7364;50.870;4.722;2023-11-19T10:05:12;14.30;99.90
14555;DHT22;7364;50.870;4.722;2023-11-19T10:07:40;14.20;99.90
14555;DHT22;7364;50.870;4.722;2023-11-19T10:10:10;14.30;99.90
14555;DHT22;7364;50.870;4.722;2023-11-19T10:12:40;14.40;99.90
14555;DHT22;7364;50.870;4.722;2023-11-19T10:15:14;14.60;99.90
14555;DHT22;7364;50.870;4.722;2023-11-19T10:17:44;15.10;99.90
14555;DHT22;7364;50.870;4.722;2023-11-19T10:20:11;15.20;99.90
14555;DHT22;7364;50.870;4.722;2023-11-19T10:22:39;15.50;99.90
14555;DHT22;7364;50.870;4.722;2023-11-19T10:25:24;15.80;99.90
14555;DHT22;7364;50.870;4.722;2023-11-19T10:27:52;15.60;99.90
14555;DHT22;7364;50.870;4.722;2023-11-19T10:30:21;15.40;99.90
14555;DHT22;7364;50.870;4.722;2023-11-19T10:33:06;15.50;99.90
14555;DHT22;7364;50.870;4.722;2023-11-19T10:35:34;16.20;99.90
14555;DHT22;7364;50.870;4.722;2023-11-19T10:38:02;16.30;99.90
14555;DHT22;7364;50.870;4.722;2023-11-19T10:40:42;16.20;99.90
14555;DHT22;7364;50.870;4.722;2023-11-19T10:43:09;16.00;99.90
14555;DHT22;7364;50.870;4.722;2023-11-19T10:45:37;15.70;99.90
14555;DHT22;7364;50.870;4.722;2023-11-19T10:48:05;15.70;99.90
14555;DHT22;7364;50.870;4.722;2023-11-19T10:50:33;15.50;99.90
14555;DHT22;7364;50.870;4.722;2023-11-19T10:53:02;15.30;99.90
14555;DHT22;7364;50.870;4.722;2023-11-19T10:55:31;15.30;99.90
14555;DHT22;7364;50.870;4.722;2023-11-19T10:58:02;15.30;99.90
14555;DHT22;7364;50.870;4.722;2023-11-19T11:00:39;15.00;99.90
14555;DHT22;7364;50.870;4.722;2023-11-19T11:03:11;14.70;99.90
14555;DHT22;7364;50.870;4.722;2023-11-19T11:05:41;14.80;99.90
14555;DHT22;7364;50.870;4.722;2023-11-19T11:08:10;14.70;99.90
14555;DHT22;7364;50.870;4.722;2023-11-19T11:10:42;14.70;99.90
14555;DHT22;7364;50.870;4.722;2023-11-19T11:13:14;14.70;99.90
14555;DHT22;7364;50.870;4.722;2023-11-19T11:15:41;14.40;99.90
14555;DHT22;7364;50.870;4.722;2023-11-19T11:18:09;14.60;99.90
14555;DHT22;7364;50.870;4.722;2023-11-19T11:20:37;14.70;99.90
14555;DHT22;7364;50.870;4.722;2023-11-19T11:26:13;14.50;99.90
14555;DHT22;7364;50.870;4.722;2023-11-19T11:28:52;14.70;99.90
14555;DHT22;7364;50.870;4.722;2023-11-19T11:31:39;14.90;99.90
14555;DHT22;7364;50.870;4.722;2023-11-19T11:37:15;14.70;99.90
14555;DHT22;7364;50.870;4.722;2023-11-19T11:39:46;14.70;99.90
14555;DHT22;7364;50.870;4.722;2023-11-19T11:42:35;14.80;99.90
14555;DHT22;7364;50.870;4.722;2023-11-19T11:45:05;14.90;99.90
14555;DHT22;7364;50.870;4.722;2023-11-19T11:50:57;14.70;99.90
14555;DHT22;7364;50.870;4.722;2023-11-19T11:53:25;14.90;99.90
14555;DHT22;7364;50.870;4.722;2023-11-19T11:55:59;14.90;99.90
14555;DHT22;7364;50.870;4.722;2023-11-19T11:58:34;15.10;99.90
14555;DHT22;7364;50.870;4.722;2023-11-19T12:01:05;15.40;99.90
14555;DHT22;7364;50.870;4.722;2023-11-19T12:03:33;15.10;99.90
14555;DHT22;7364;50.870;4.722;2023-11-19T12:05:59;15.20;99.90
14555;DHT22;7364;50.870;4.722;2023-11-19T12:08:28;15.10;99.90
14555;DHT22;7364;50.870;4.722;2023-11-19T12:10:58;15.20;99.90
14555;DHT22;7364;50.870;4.722;2023-11-19T12:16:13;15.50;99.90
14555;DHT22;7364;50.870;4.722;2023-11-19T12:18:40;15.70;99.90
14555;DHT22;7364;50.870;4.722;2023-11-19T12:21:08;15.80;99.90
14555;DHT22;7364;50.870;4.722;2023-11-19T12:23:45;15.80;99.90
14555;DHT22;7364;50.870;4.722;2023-11-19T12:26:33;15.80;99.90
14555;DHT22;7364;50.870;4.722;2023-11-19T12:29:01;15.90;99.90
14555;DHT22;7364;50.870;4.722;2023-11-19T12:31:33;15.50;99.90
14555;DHT22;7364;50.870;4.722;2023-11-19T12:34:08;15.10;99.90
14555;DHT22;7364;50.870;4.722;2023-11-19T12:36:41;15.10;99.90
14555;DHT22;7364;50.870;4.722;2023-11-19T12:39:09;15.10;99.90
14555;DHT22;7364;50.870;4.722;2023-11-19T12:41:54;15.20;99.90
14555;DHT22;7364;50.870;4.722;2023-11-19T12:44:22;15.30;99.90
14555;DHT22;7364;50.870;4.722;2023-11-19T12:47:04;15.30;99.90
14555;DHT22;7364;50.870;4.722;2023-11-19T12:49:32;15.20;99.90
14555;DHT22;7364;50.870;4.722;2023-11-19T12:51:59;15.10;99.90
14555;DHT22;7364;50.870;4.722;2023-11-19T12:54:34;15.00;99.90
14555;DHT22;7364;50.870;4.722;2023-11-19T12:57:01;15.00;99.90
14555;DHT22;7364;50.870;4.722;2023-11-19T12:59:28;14.80;99.90
14555;DHT22;7364;50.870;4.722;2023-11-19T13:01:56;14.80;99.90
14555;DHT22;7364;50.870;4.722;2023-11-19T13:04:28;14.80;99.90
14555;DHT22;7364;50.870;4.722;2023-11-19T13:06:56;14.90;99.90
14555;DHT22;7364;50.870;4.722;2023-11-19T13:09:24;14.80;99.90
14555;DHT22;7364;50.870;4.722;2023-11-19T13:11:51;14.80;99.90
14555;DHT22;7364;50.870;4.722;2023-11-19T13:14:19;14.50;99.90
14555;DHT22;7364;50.870;4.722;2023-11-19T13:16:47;14.50;99.90
14555;DHT22;7364;50.870;4.722;2023-11-19T13:19:15;14.50;99.90
14555;DHT22;7364;50.870;4.722;2023-11-19T13:21:46;14.60;99.90
14555;DHT22;7364;50.870;4.722;2023-11-19T13:24:14;14.50;99.90
14555;DHT22;7364;50.870;4.722;2023-11-19T13:26:41;14.80;99.90
14555;DHT22;7364;50.870;4.722;2023-11-19T13:29:08;14.80;99.90
14555;DHT22;7364;50.870;4.722;2023-11-19T13:31:36;14.80;99.90
14555;DHT22;7364;50.870;4.722;2023-11-19T13:34:04;14.90;99.90
14555;DHT22;7364;50.870;4.722;2023-11-19T13:36:33;15.10;99.90
14555;DHT22;7364;50.870;4.722;2023-11-19T13:39:03;15.20;99.90
14555;DHT22;7364;50.870;4.722;2023-11-19T13:41:30;14.90;99.90
14555;DHT22;7364;50.870;4.722;2023-11-19T13:43:57;14.80;99.90
14555;DHT22;7364;50.870;4.722;2023-11-19T13:46:25;14.90;99.90
14555;DHT22;7364;50.870;4.722;2023-11-19T13:48:52;14.90;99.90
14555;DHT22;7364;50.870;4.722;2023-11-19T13:51:19;14.90;99.90
14555;DHT22;7364;50.870;4.722;2023-11-19T13:53:46;14.90;99.90
14555;DHT22;7364;50.870;4.722;2023-11-19T13:56:15;14.80;99.90
14555;DHT22;7364;50.870;4.722;2023-11-19T13:58:44;14.80;99.90
14555;DHT22;7364;50.870;4.722;2023-11-19T14:01:12;14.60;99.90
14555;DHT22;7364;50.870;4.722;2023-11-19T14:03:40;14.70;99.90
14555;DHT22;7364;50.870;4.722;2023-11-19T14:06:08;14.80;99.90
14555;DHT22;7364;50.870;4.722;2023-11-19T14:08:35;14.80;99.90
14555;DHT22;7364;50.870;4.722;2023-11-19T14:11:02;14.50;99.90
14555;DHT22;7364;50.870;4.722;2023-11-19T14:13:30;14.40;99.90
14555;DHT22;7364;50.870;4.722;2023-11-19T14:15:58;14.50;99.90
14555;DHT22;7364;50.870;4.722;2023-11-19T14:18:25;14.50;99.90
14555;DHT22;7364;50.870;4.722;2023-11-19T14:20:52;14.50;99.90
14555;DHT22;7364;50.870;4.722;2023-11-19T14:23:20;14.60;99.90
14555;DHT22;7364;50.870;4.722;2023-11-19T14:25:47;14.50;99.90
14555;DHT22;7364;50.870;4.722;2023-11-19T14:28:15;14.40;99.90
14555;DHT22;7364;50.870;4.722;2023-11-19T14:30:44;14.40;99.90
14555;DHT22;7364;50.870;4.722;2023-11-19T14:33:12;14.40;99.90
14555;DHT22;7364;50.870;4.722;2023-11-19T14:35:39;14.30;99.90
14555;DHT22;7364;50.870;4.722;2023-11-19T14:38:06;14.40;99.90
14555;DHT22;7364;50.870;4.722;2023-11-19T14:40:35;14.50;99.90
14555;DHT22;7364;50.870;4.722;2023-11-19T14:43:02;14.40;99.90
14555;DHT22;7364;50.870;4.722;2023-11-19T14:45:30;14.30;99.90
14555;DHT22;7364;50.870;4.722;2023-11-19T14:47:58;14.40;99.90
14555;DHT22;7364;50.870;4.722;2023-11-19T14:50:27;14.30;99.90
14555;DHT22;7364;50.870;4.722;2023-11-19T14:52:54;14.10;99.90
14555;DHT22;7364;50.870;4.722;2023-11-19T14:55:21;13.90;99.90
14555;DHT22;7364;50.870;4.722;2023-11-19T14:57:48;13.80;99.90
14555;DHT22;7364;50.870;4.722;2023-11-19T15:00:17;13.70;99.90
14555;DHT22;7364;50.870;4.722;2023-11-19T15:02:44;13.60;99.90
14555;DHT22;7364;50.870;4.722;2023-11-19T15:05:13;13.70;99.90
14555;DHT22;7364;50.870;4.722;2023-11-19T15:07:40;13.70;99.90
14555;DHT22;7364;50.870;4.722;2023-11-19T15:10:08;13.80;99.90
14555;DHT22;7364;50.870;4.722;2023-11-19T15:12:37;13.80;99.90
14555;DHT22;7364;50.870;4.722;2023-11-19T15:15:07;13.90;99.90
14555;DHT22;7364;50.870;4.722;2023-11-19T15:17:35;13.80;99.90
14555;DHT22;7364;50.870;4.722;2023-11-19T15:20:03;13.60;99.90
14555;DHT22;7364;50.870;4.722;2023-11-19T15:22:32;13.60;99.90
14555;DHT22;7364;50.870;4.722;2023-11-19T15:25:00;13.70;99.90
14555;DHT22;7364;50.870;4.722;2023-11-19T15:27:28;13.60;99.90
14555;DHT22;7364;50.870;4.722;2023-11-19T15:29:56;13.50;99.90
14555;DHT22;7364;50.870;4.722;2023-11-19T15:32:24;13.50;99.90
14555;DHT22;7364;50.870;4.722;2023-11-19T15:34:51;13.70;99.90
14555;DHT22;7364;50.870;4.722;2023-11-19T15:37:18;13.80;99.90
14555;DHT22;7364;50.870;4.722;2023-11-19T15:39:47;13.90;99.90
14555;DHT22;7364;50.870;4.722;2023-11-19T15:42:17;13.80;99.90
14555;DHT22;7364;50.870;4.722;2023-11-19T15:44:44;13.70;99.90
14555;DHT22;7364;50.870;4.722;2023-11-19T15:47:11;13.70;99.90
14555;DHT22;7364;50.870;4.722;2023-11-19T15:49:40;13.70;99.90
14555;DHT22;7364;50.870;4.722;2023-11-19T15:52:07;13.80;99.90
14555;DHT22;7364;50.870;4.722;2023-11-19T15:54:35;13.90;99.90
14555;DHT22;7364;50.870;4.722;2023-11-19T15:57:05;13.90;99.90
14555;DHT22;7364;50.870;4.722;2023-11-19T15:59:32;14.00;99.90
14555;DHT22;7364;50.870;4.722;2023-11-19T16:01:59;13.90;99.90
14555;DHT22;7364;50.870;4.722;2023-11-19T16:04:27;13.80;99.90
14555;DHT22;7364;50.870;4.722;2023-11-19T16:06:54;13.90;99.90